Time;durP1;ratioP1;P1;durP2;ratioP2;P2;SDS_P1;SDS_P2;PMS_P1;PMS_P2;Temp;Humidity;BMP_temperature;BMP_pressure;BME280_temperature;BME280_humidity;BME280_pressure;Samples;Min_cycle;Max_cycle;Signal;HPM_P1;HPM_P2
2022/05/31 00:00:33;;;;;;;9.60;2.88;;;11.10;99.90;;;9.98;100.00;101029.78;4992171;28;20386;-69
2022/05/31 00:03:01;;;;;;;7.63;3.08;;;11.20;99.90;;;10.00;100.00;101029.72;4974696;28;20034;-69
2022/05/31 00:05:27;;;;;;;8.00;3.05;;;11.20;99.90;;;10.01;100.00;101034.06;4996385;28;20019;-69
2022/05/31 00:07:53;;;;;;;5.82;3.00;;;11.20;99.90;;;10.02;100.00;101035.78;4981188;28;20184;-70
2022/05/31 00:10:19;;;;;;;8.93;2.90;;;11.20;99.90;;;10.01;100.00;101032.28;4990332;28;20038;-71
2022/05/31 00:12:45;;;;;;;5.28;3.13;;;11.20;99.90;;;10.01;100.00;101034.91;5001166;28;20040;-70
2022/05/31 00:15:14;;;;;;;6.05;3.13;;;11.20;99.90;;;10.03;100.00;101034.88;4985490;28;20457;-69
2022/05/31 00:17:41;;;;;;;9.30;3.40;;;11.20;99.90;;;10.04;100.00;101040.06;4978767;28;20019;-71
2022/05/31 00:20:10;;;;;;;7.53;2.78;;;11.20;99.90;;;10.04;100.00;101037.44;4990387;28;20038;-70
2022/05/31 00:22:38;;;;;;;7.50;2.78;;;11.20;99.90;;;10.02;100.00;101041.91;4988757;28;20027;-70
2022/05/31 00:25:05;;;;;;;8.05;2.75;;;11.20;99.90;;;10.03;100.00;101046.25;4982606;28;20118;-69
2022/05/31 00:27:31;;;;;;;7.93;2.85;;;11.20;99.90;;;10.02;100.00;101044.53;4986107;28;20132;-69
2022/05/31 00:29:57;;;;;;;8.88;3.00;;;11.20;99.90;;;10.03;100.00;101029.59;4981515;28;20030;-69
2022/05/31 00:32:28;;;;;;;5.32;2.95;;;11.20;99.90;;;10.00;100.00;101029.72;4986682;28;20061;-70
2022/05/31 00:34:57;;;;;;;9.13;3.22;;;11.20;99.90;;;9.99;100.00;101039.38;4983915;28;20169;-70
2022/05/31 00:37:23;;;;;;;7.20;2.90;;;11.10;99.90;;;9.98;100.00;101036.84;5008408;28;20433;-71
2022/05/31 00:39:49;;;;;;;7.15;3.20;;;11.10;99.90;;;9.97;100.00;101038.59;5000864;28;20042;-69
2022/05/31 00:42:20;;;;;;;5.43;3.15;;;11.10;99.90;;;9.96;100.00;101043.94;4992312;28;20034;-71
2022/05/31 00:44:46;;;;;;;8.18;3.17;;;11.10;99.90;;;9.94;100.00;101036.09;4973410;28;20047;-71
2022/05/31 00:47:26;;;;;;;8.02;3.20;;;11.10;99.90;;;9.94;100.00;101036.09;4989095;28;20026;-70
2022/05/31 00:50:09;;;;;;;6.68;3.08;;;11.10;99.90;;;9.92;100.00;101035.28;4988977;28;20030;-69
2022/05/31 00:52:50;;;;;;;6.05;2.85;;;11.10;99.90;;;9.89;100.00;101038.03;4987891;28;20108;-70
2022/05/31 00:55:50;;;;;;;9.13;3.45;;;11.00;99.90;;;9.87;100.00;101026.72;4991366;28;20125;-70
2022/05/31 00:58:41;;;;;;;8.98;3.30;;;11.00;99.90;;;9.85;100.00;101036.47;4972839;28;20030;-71
2022/05/31 01:01:11;;;;;;;4.88;3.20;;;11.00;99.90;;;9.81;100.00;101037.47;4978564;28;20030;-72
2022/05/31 01:03:40;;;;;;;6.18;3.30;;;11.00;99.90;;;9.78;100.00;101034.97;4984254;28;20029;-70
2022/05/31 01:06:06;;;;;;;8.10;2.95;;;11.00;99.90;;;9.77;100.00;101035.88;4998424;28;20106;-72
2022/05/31 01:08:34;;;;;;;8.95;3.20;;;11.00;99.90;;;9.76;100.00;101035.03;4991769;28;20021;-70
2022/05/31 01:11:01;;;;;;;8.50;3.58;;;11.00;99.90;;;9.74;100.00;101028.09;4986415;28;20092;-70
2022/05/31 01:13:29;;;;;;;6.75;2.90;;;10.90;99.90;;;9.75;100.00;101033.31;5001131;28;20034;-72
2022/05/31 01:16:08;;;;;;;6.18;3.17;;;10.90;99.90;;;9.73;100.00;101024.63;5000690;28;20073;-71
2022/05/31 01:18:35;;;;;;;6.70;3.10;;;10.90;99.90;;;9.71;100.00;101030.84;4980655;28;20457;-70
2022/05/31 01:21:01;;;;;;;11.90;3.20;;;10.90;99.90;;;9.70;100.00;101035.25;4991532;28;20053;-70
2022/05/31 01:23:33;;;;;;;7.35;3.58;;;10.90;99.90;;;9.68;100.00;101034.47;5004782;28;20664;-70
2022/05/31 01:26:13;;;;;;;6.90;3.22;;;10.80;99.90;;;9.70;100.00;101031.75;4992506;28;20025;-69
2022/05/31 01:29:02;;;;;;;13.25;3.40;;;10.80;99.90;;;9.67;100.00;101030.09;4992620;28;20125;-69
2022/05/31 01:31:37;;;;;;;8.23;3.40;;;10.80;99.90;;;9.66;100.00;101031.03;4982590;28;20471;-70
2022/05/31 01:34:27;;;;;;;8.20;3.20;;;10.80;99.90;;;9.65;100.00;101032.81;4996152;28;20040;-70
2022/05/31 01:36:55;;;;;;;10.27;3.10;;;10.80;99.90;;;9.64;100.00;101041.59;4992564;28;20286;-71
2022/05/31 01:39:33;;;;;;;7.50;3.13;;;10.80;99.90;;;9.64;100.00;101038.97;4998184;28;20395;-69
2022/05/31 01:42:23;;;;;;;6.57;3.30;;;10.80;99.90;;;9.66;100.00;101033.66;4991274;28;20072;-70
2022/05/31 01:45:01;;;;;;;8.52;3.53;;;10.80;99.90;;;9.64;100.00;101038.97;4993678;28;20092;-70
2022/05/31 01:47:28;;;;;;;6.50;3.50;;;11.00;99.90;;;9.66;100.00;101046.81;5000948;28;20046;-70
2022/05/31 01:49:54;;;;;;;5.20;3.25;;;10.80;99.90;;;9.68;100.00;101042.34;4984768;28;20334;-70
2022/05/31 01:52:22;;;;;;;10.07;3.70;;;10.80;99.90;;;9.71;100.00;101044.00;4982313;28;20042;-69
2022/05/31 01:54:48;;;;;;;5.60;3.38;;;10.90;99.90;;;9.71;100.00;101052.75;4992784;28;20041;-70
2022/05/31 01:57:16;;;;;;;8.52;3.58;;;10.90;99.90;;;9.71;100.00;101047.47;4991893;28;20034;-71
2022/05/31 01:59:47;;;;;;;6.13;3.50;;;10.90;99.90;;;9.72;100.00;101041.31;4992533;28;20030;-69
2022/05/31 02:02:16;;;;;;;10.18;3.65;;;10.90;99.90;;;9.71;100.00;101047.47;4993913;28;20669;-71
2022/05/31 02:04:43;;;;;;;10.90;3.88;;;10.90;99.90;;;9.71;100.00;101044.00;4980263;28;20058;-69
2022/05/31 02:07:22;;;;;;;16.75;3.53;;;10.90;99.90;;;9.72;100.00;101043.06;5010575;28;20037;-70
2022/05/31 02:09:51;;;;;;;8.48;3.30;;;10.90;99.90;;;9.74;100.00;101038.63;4982917;28;20547;-69
2022/05/31 02:12:19;;;;;;;6.53;3.50;;;10.90;99.90;;;9.77;100.00;101028.84;4998057;28;20045;-70
2022/05/31 02:14:45;;;;;;;7.25;3.30;;;10.90;99.90;;;9.78;100.00;101042.84;4991530;28;20438;-70
2022/05/31 02:17:11;;;;;;;4.35;3.28;;;10.90;99.90;;;9.79;100.00;101036.69;4996986;28;20054;-72
2022/05/31 02:19:37;;;;;;;7.57;3.70;;;10.90;99.90;;;9.80;100.00;101036.59;4991575;28;20479;-71
2022/05/31 02:22:10;;;;;;;7.53;3.45;;;10.90;99.90;;;9.82;100.00;101031.28;4994237;28;20029;-71
2022/05/31 02:24:37;;;;;;;6.80;3.28;;;11.00;99.90;;;9.81;100.00;101027.81;4992231;28;20080;-70
2022/05/31 02:27:03;;;;;;;7.10;3.03;;;11.00;99.90;;;9.80;100.00;101028.72;5000075;28;20029;-71
2022/05/31 02:29:34;;;;;;;6.80;3.25;;;11.00;99.90;;;9.81;100.00;101027.81;4998925;28;20038;-70
2022/05/31 02:32:04;;;;;;;7.05;3.28;;;11.00;99.90;;;9.83;100.00;101033.03;4971976;28;20041;-70
2022/05/31 02:34:36;;;;;;;7.20;3.28;;;11.00;99.90;;;9.82;100.00;101032.13;4993612;28;20049;-70
2022/05/31 02:37:02;;;;;;;11.40;3.65;;;11.00;99.90;;;9.82;100.00;101036.56;5000372;28;20033;-69
2022/05/31 02:39:28;;;;;;;11.70;3.40;;;11.00;99.90;;;9.82;100.00;101044.44;4989606;28;20040;-70
2022/05/31 02:41:54;;;;;;;5.70;3.45;;;11.00;99.90;;;9.83;100.00;101036.50;4974277;28;20034;-69
2022/05/31 02:44:20;;;;;;;6.45;3.33;;;11.00;99.90;;;9.84;100.00;101040.84;4966934;28;20113;-70
2022/05/31 02:46:45;;;;;;;4.75;3.17;;;11.00;99.90;;;9.84;100.00;101051.34;4992324;28;20072;-71
2022/05/31 02:49:12;;;;;;;8.70;3.58;;;11.00;99.90;;;9.85;100.00;101054.88;4992876;28;20449;-70
2022/05/31 02:51:45;;;;;;;7.90;3.42;;;11.00;99.90;;;9.85;100.00;101039.94;4997420;28;20038;-70
2022/05/31 02:54:14;;;;;;;7.63;3.70;;;11.00;99.90;;;9.88;100.00;101048.63;4987895;28;20099;-70
2022/05/31 02:56:40;;;;;;;6.55;3.08;;;11.00;99.90;;;9.89;100.00;101047.69;5012239;28;20026;-70
2022/05/31 02:59:06;;;;;;;5.68;3.72;;;11.00;99.90;;;9.89;100.00;101055.59;5006151;28;20068;-72
2022/05/31 03:01:36;;;;;;;4.25;3.00;;;11.00;99.90;;;9.92;100.00;101045.81;4991159;28;20506;-69
2022/05/31 03:04:04;;;;;;;7.30;3.45;;;11.10;99.90;;;9.92;100.00;101048.44;4973287;28;20084;-70
2022/05/31 03:06:30;;;;;;;5.93;3.05;;;11.00;99.90;;;9.93;100.00;101044.88;4997547;28;20034;-72
2022/05/31 03:08:57;;;;;;;6.05;3.30;;;11.10;99.90;;;9.96;100.00;101052.66;5001839;28;20332;-71
2022/05/31 03:11:41;;;;;;;7.35;3.40;;;11.10;99.90;;;9.98;100.00;101048.22;4992893;28;20064;-70
2022/05/31 03:14:42;;;;;;;7.20;3.40;;;11.10;99.90;;;9.99;100.00;101049.91;4999459;28;20029;-70
2022/05/31 03:17:20;;;;;;;7.88;3.53;;;11.10;99.90;;;9.99;100.00;101054.31;4973171;28;20062;-69
2022/05/31 03:20:40;;;;;;;8.57;3.50;;;11.10;99.90;;;9.99;100.00;101052.53;4989694;28;20026;-69
2022/05/31 03:23:21;;;;;;;12.05;3.90;;;11.10;99.90;;;10.00;100.00;101056.91;4966798;28;20042;-71
2022/05/31 03:25:50;;;;;;;6.80;3.42;;;11.10;99.90;;;10.01;100.00;101052.50;4964057;28;20142;-70
2022/05/31 03:28:18;;;;;;;6.47;3.75;;;11.20;99.90;;;10.03;100.00;101062.03;4981462;28;20113;-70
2022/05/31 03:30:44;;;;;;;14.60;3.97;;;11.10;99.90;;;10.07;100.00;101061.00;4992681;28;20066;-71
2022/05/31 03:33:11;;;;;;;8.48;4.13;;;11.20;99.90;;;10.10;100.00;101059.16;4997423;28;20382;-70
2022/05/31 03:35:38;;;;;;;5.00;3.50;;;11.20;99.90;;;10.13;100.00;101065.16;4999613;28;20474;-70
2022/05/31 03:38:04;;;;;;;6.13;3.55;;;11.20;99.90;;;10.15;100.00;101059.81;4992005;28;20108;-70
2022/05/31 03:43:14;;;;;;;5.68;3.75;;;11.30;99.90;;;10.22;100.00;101058.69;4997289;28;20044;-69
2022/05/31 03:45:43;;;;;;;9.63;4.25;;;11.30;99.90;;;10.29;100.00;101062.81;5003029;28;20038;-69
2022/05/31 03:48:11;;;;;;;4.85;3.58;;;11.40;99.90;;;10.37;100.00;101063.38;4991433;28;20025;-71
2022/05/31 03:50:38;;;;;;;7.22;3.97;;;11.40;99.90;;;10.46;100.00;101064.78;4996468;28;20027;-70
2022/05/31 03:53:09;;;;;;;8.55;3.78;;;11.50;99.90;;;10.54;100.00;101062.69;4993523;28;20895;-69
2022/05/31 03:55:40;;;;;;;9.68;3.92;;;11.60;99.90;;;10.61;100.00;101069.41;4998319;28;20517;-70
2022/05/31 03:58:06;;;;;;;8.65;3.88;;;11.70;99.90;;;10.68;100.00;101073.47;4991671;28;20049;-70
2022/05/31 04:00:32;;;;;;;8.88;3.60;;;11.70;99.90;;;10.76;100.00;101078.44;4996106;28;20022;-71
2022/05/31 04:02:58;;;;;;;11.50;3.63;;;11.80;99.90;;;10.82;100.00;101075.56;4998625;28;20034;-69
2022/05/31 04:05:24;;;;;;;7.40;3.33;;;11.80;99.90;;;10.85;100.00;101078.06;4988280;28;20041;-70
2022/05/31 04:07:52;;;;;;;7.25;3.28;;;11.90;99.90;;;10.86;100.00;101077.16;4998481;28;20038;-70
2022/05/31 04:10:18;;;;;;;9.60;3.60;;;11.90;99.90;;;10.86;100.00;101079.78;4984242;28;20022;-70
2022/05/31 04:12:44;;;;;;;8.93;3.70;;;11.90;99.90;;;10.90;100.00;101084.91;4990570;28;20100;-70
2022/05/31 04:15:10;;;;;;;11.13;3.58;;;11.90;99.90;;;10.91;100.00;101086.59;5001939;28;20062;-70
2022/05/31 04:17:36;;;;;;;9.38;3.53;;;11.90;99.90;;;10.95;100.00;101082.94;4992235;28;20482;-70
2022/05/31 04:20:02;;;;;;;;;;;11.90;99.90;;;10.94;100.00;101084.72;4988190;28;20030;-69
2022/05/31 04:22:27;;;;;;;7.68;4.10;;;12.00;99.90;;;10.97;100.00;101091.63;4985252;28;19956;-70
2022/05/31 04:24:57;;;;;;;8.40;3.80;;;12.00;99.90;;;11.01;100.00;101088.78;4993674;28;20108;-72
2022/05/31 04:27:22;;;;;;;7.13;3.70;;;12.00;99.90;;;11.08;100.00;101099.94;4985668;28;20084;-71
2022/05/31 04:29:48;;;;;;;5.80;3.22;;;12.10;99.90;;;11.13;100.00;101094.47;4983469;28;20429;-70
2022/05/31 04:32:17;;;;;;;8.13;3.67;;;12.10;99.90;;;11.14;99.55;101091.75;4987985;28;20523;-70
2022/05/31 04:34:43;;;;;;;7.95;3.50;;;12.10;99.90;;;11.17;99.17;101086.38;4993955;28;20029;-70
2022/05/31 04:37:09;;;;;;;14.50;3.47;;;12.20;99.90;;;11.24;98.79;101095.72;4993536;28;20449;-69
2022/05/31 04:39:35;;;;;;;7.38;3.17;;;12.20;99.90;;;11.28;97.62;101091.19;4997319;28;20049;-70
2022/05/31 04:42:01;;;;;;;8.02;3.30;;;12.30;99.90;;;11.38;98.08;101097.75;4995244;28;20030;-70
2022/05/31 04:44:27;;;;;;;7.47;3.40;;;12.30;99.90;;;11.46;97.30;101089.50;4994819;28;20387;-69
2022/05/31 04:46:53;;;;;;;6.28;3.63;;;12.40;99.90;;;11.54;96.94;101094.44;4995171;28;20077;-71
2022/05/31 04:49:20;;;;;;;7.45;3.40;;;12.50;99.90;;;11.63;96.50;101096.66;4994957;28;20049;-70
2022/05/31 04:51:46;;;;;;;6.63;3.70;;;12.60;99.90;;;11.76;96.11;101099.59;4994653;28;20045;-70
2022/05/31 04:54:12;;;;;;;6.15;3.70;;;12.70;99.90;;;11.88;95.54;101094.66;4999672;28;20542;-71
2022/05/31 04:56:38;;;;;;;10.38;3.67;;;12.80;99.90;;;12.03;94.61;101098.38;4996293;28;20038;-69
2022/05/31 04:59:04;;;;;;;9.98;3.30;;;12.90;99.90;;;12.25;93.88;101097.34;4993669;28;20759;-70
2022/05/31 05:01:33;;;;;;;6.70;3.45;;;13.10;99.90;;;12.50;92.45;101097.88;4991781;28;20462;-69
2022/05/31 05:03:58;;;;;;;6.30;3.28;;;13.30;99.90;;;12.77;90.63;101097.44;4983336;28;20025;-69
2022/05/31 05:06:24;;;;;;;7.50;3.88;;;13.50;99.90;;;13.06;88.80;101097.75;4994275;28;20055;-71
2022/05/31 05:08:50;;;;;;;7.57;3.42;;;13.80;99.90;;;13.45;86.62;101109.88;4987196;28;20021;-70
2022/05/31 05:11:19;;;;;;;9.95;3.30;;;14.00;99.90;;;13.88;84.34;101107.59;5003874;28;20041;-71
2022/05/31 05:13:45;;;;;;;9.20;3.78;;;14.50;99.90;;;15.22;80.25;101119.41;4989934;28;20164;-71
2022/05/31 05:16:13;;;;;;;7.80;3.50;;;15.20;99.90;;;15.96;75.22;101120.22;5003486;28;20172;-70
2022/05/31 05:18:39;;;;;;;9.00;3.60;;;15.80;99.90;;;16.50;72.55;101115.00;4993928;28;20470;-72
2022/05/31 05:21:09;;;;;;;7.47;3.35;;;16.30;99.90;;;16.59;70.50;101119.72;4995525;28;20047;-71
2022/05/31 05:23:35;;;;;;;6.32;3.75;;;16.50;99.90;;;16.66;69.73;101127.28;4998868;28;20562;-71
2022/05/31 05:26:01;;;;;;;8.00;3.35;;;16.70;99.90;;;17.01;69.48;101125.81;4994931;28;20026;-73
2022/05/31 05:31:34;;;;;;;7.63;3.28;;;17.90;99.90;;;18.48;65.89;101126.25;5000138;28;20049;-70
2022/05/31 05:34:02;;;;;;;6.82;3.55;;;18.50;99.90;;;19.02;64.10;101136.47;4998260;28;20028;-70
2022/05/31 05:36:29;;;;;;;6.65;3.30;;;19.00;99.90;;;19.35;62.78;101135.72;4992565;28;20108;-70
2022/05/31 05:38:55;;;;;;;10.45;3.33;;;19.40;99.90;;;19.89;61.67;101142.22;5005840;28;20051;-70
2022/05/31 05:41:24;;;;;;;8.38;3.53;;;19.80;99.90;;;20.64;59.04;101143.34;5009595;28;20055;-71
2022/05/31 05:43:50;;;;;;;6.13;3.05;;;20.50;99.90;;;22.09;55.51;101148.81;4999931;28;20034;-70
2022/05/31 05:46:34;;;;;;;6.90;3.25;;;21.50;99.90;;;23.70;51.06;101151.97;4990860;28;20035;-71
2022/05/31 05:48:59;;;;;;;7.07;3.10;;;22.30;99.90;;;23.73;49.88;101166.94;4988957;28;20704;-70
2022/05/31 05:51:32;;;;;;;6.10;3.00;;;22.80;99.90;;;24.70;49.11;101163.81;4992574;28;20034;-71
2022/05/31 05:53:58;;;;;;;8.02;3.00;;;23.50;99.90;;;25.28;46.23;101175.13;5001823;28;20121;-71
2022/05/31 05:56:25;;;;;;;7.10;3.05;;;23.90;99.90;;;25.91;45.83;101185.66;4995936;28;20483;-71
2022/05/31 05:58:51;;;;;;;6.85;3.40;;;24.30;99.90;;;26.94;44.09;101192.78;4984549;28;20045;-71
2022/05/31 06:01:35;;;;;;;9.63;3.10;;;24.50;99.90;;;26.64;45.70;101195.09;4993117;28;20338;-73
2022/05/31 06:04:09;;;;;;;7.13;3.00;;;24.60;98.70;;;26.17;43.36;101206.38;4990578;28;20057;-70
2022/05/31 06:06:36;;;;;;;8.52;3.20;;;24.60;99.00;;;26.87;42.39;101216.06;4995330;28;20026;-71
2022/05/31 06:09:08;;;;;;;8.20;3.38;;;24.90;98.80;;;27.49;41.51;101224.56;5003944;28;20027;-70
2022/05/31 06:12:03;;;;;;;7.28;3.25;;;25.30;97.60;;;27.45;41.81;101233.19;5000422;28;20458;-72
2022/05/31 06:14:52;;;;;;;8.50;3.00;;;25.80;97.80;;;28.50;41.25;101243.97;4979584;28;20034;-70
2022/05/31 06:17:24;;;;;;;10.15;3.08;;;26.50;96.40;;;30.04;38.21;101249.25;5000627;28;20028;-71
2022/05/31 06:19:50;;;;;;;11.52;3.00;;;27.60;96.50;;;31.21;36.37;101255.66;4981549;28;20122;-70
2022/05/31 06:22:18;;;;;;;4.93;2.38;;;28.80;93.20;;;31.98;37.25;101260.31;4994148;28;20045;-71
2022/05/31 06:24:45;;;;;;;7.13;3.13;;;29.70;91.80;;;32.64;35.68;101264.47;4995922;28;20070;-72
2022/05/31 06:27:11;;;;;;;15.35;2.58;;;30.40;92.90;;;31.92;36.13;101261.09;4982874;28;20109;-71
2022/05/31 06:29:36;;;;;;;5.88;2.70;;;30.80;90.50;;;32.79;35.13;101273.31;4986770;28;20026;-71
2022/05/31 06:32:03;;;;;;;7.57;2.72;;;30.90;89.50;;;32.28;36.28;101281.88;5001070;28;20050;-70
2022/05/31 06:34:28;;;;;;;8.07;2.70;;;31.10;90.00;;;32.32;36.02;101280.44;4991307;28;20026;-71
2022/05/31 06:37:05;;;;;;;6.47;2.28;;;31.40;89.60;;;33.19;35.14;101299.88;4993836;28;22821;-71
2022/05/31 06:39:32;;;;;;;;;;;31.40;87.60;;;33.43;34.42;101309.34;4994321;28;20107;-71
2022/05/31 06:41:58;;;;;;;6.57;2.15;;;32.20;85.10;;;33.88;31.65;101317.78;4991317;28;20374;-71
2022/05/31 06:44:24;;;;;;;6.60;2.38;;;32.40;85.80;;;33.43;34.01;101314.81;4985197;28;20097;-71
2022/05/31 06:46:49;;;;;;;4.45;1.98;;;32.00;84.30;;;31.95;35.05;101304.28;4991886;28;20594;-71
2022/05/31 06:49:15;;;;;;;6.60;2.20;;;31.30;82.10;;;31.41;34.73;101311.13;4995920;28;20260;-71
2022/05/31 06:57:11;;;;;;;8.57;2.20;;;32.00;84.60;;;33.39;31.02;101347.16;4993123;28;20049;-70
2022/05/31 06:59:37;;;;;;;6.65;2.10;;;32.50;79.20;;;33.71;29.04;101348.22;4993315;28;20030;-71
2022/05/31 07:02:04;;;;;;;3.83;1.77;;;32.80;77.10;;;33.73;29.16;101355.38;4985128;28;20116;-71
2022/05/31 07:04:35;;;;;;;8.07;2.05;;;32.90;77.00;;;32.84;28.43;101354.50;4991886;28;20033;-70
2022/05/31 07:07:02;;;;;;;4.68;1.88;;;32.70;75.00;;;32.92;28.05;101364.38;4983108;28;20038;-71
2022/05/31 07:09:27;;;;;;;4.57;1.65;;;32.60;75.50;;;32.23;29.40;101360.66;4992639;28;20482;-71
2022/05/31 07:11:57;;;;;;;6.43;1.80;;;32.20;76.20;;;32.41;29.32;101369.13;4987915;28;20545;-71
2022/05/31 07:14:24;;;;;;;6.32;1.70;;;32.30;78.00;;;32.99;28.76;101371.56;4995378;28;20129;-70
2022/05/31 07:16:50;;;;;;;10.40;1.63;;;32.50;73.50;;;32.75;29.35;101378.38;4999018;28;20037;-70
2022/05/31 07:19:16;;;;;;;4.05;1.42;;;32.20;74.50;;;31.74;29.40;101375.09;4986974;28;20022;-72
2022/05/31 07:21:42;;;;;;;3.50;1.42;;;31.60;75.30;;;31.05;29.80;101371.00;4992583;28;20129;-71
2022/05/31 07:24:08;;;;;;;4.88;1.45;;;31.30;77.10;;;31.31;29.40;101375.91;4997707;28;20033;-70
2022/05/31 07:26:34;;;;;;;14.82;2.55;;;31.10;75.60;;;30.81;29.87;101374.84;4998812;28;20395;-72
2022/05/31 07:28:59;;;;;;;7.07;2.08;;;30.60;75.20;;;29.77;30.67;101380.16;4981340;28;20040;-71
2022/05/31 07:31:26;;;;;;;3.65;1.73;;;29.50;74.50;;;27.64;32.74;101368.06;4999239;28;20041;-71
2022/05/31 07:33:52;;;;;;;12.93;3.35;;;28.10;76.40;;;25.86;35.60;101351.69;4998581;28;20438;-71
2022/05/31 07:36:19;;;;;;;3.75;1.40;;;27.10;80.30;;;25.84;35.99;101341.03;4998525;28;20149;-71
2022/05/31 07:38:45;;;;;;;2.80;1.45;;;26.20;82.50;;;24.67;38.04;101336.44;4994854;28;20045;-70
2022/05/31 07:41:11;;;;;;;4.03;1.33;;;25.20;81.90;;;23.88;39.10;101321.47;4992890;28;20033;-71
2022/05/31 07:43:37;;;;;;;2.80;1.40;;;25.20;86.80;;;25.53;37.44;101332.53;5000664;28;20536;-71
2022/05/31 07:46:12;;;;;;;3.63;1.30;;;26.00;85.70;;;26.99;35.52;101342.56;4997206;28;20042;-70
2022/05/31 07:48:38;;;;;;;2.28;1.05;;;27.20;85.20;;;28.42;34.09;101343.19;4992612;28;20109;-71
2022/05/31 07:51:06;;;;;;;3.55;1.00;;;28.30;82.50;;;29.53;33.04;101360.28;5000721;28;20033;-72
2022/05/31 07:53:33;;;;;;;3.40;1.17;;;29.30;79.30;;;30.16;29.99;101362.81;4991488;28;20544;-71
2022/05/31 07:56:00;;;;;;;2.45;1.02;;;29.90;75.70;;;30.51;30.19;101377.59;5002551;28;20018;-70
2022/05/31 07:58:33;;;;;;;4.05;1.13;;;30.30;76.90;;;30.73;29.81;101370.34;4997860;28;21889;-71
2022/05/31 08:01:04;;;;;;;2.33;0.98;;;30.50;74.70;;;30.83;29.21;101384.50;4990060;28;20398;-71
2022/05/31 08:03:31;;;;;;;6.50;1.08;;;30.60;74.20;;;30.87;29.15;101385.00;4998391;28;20049;-71
2022/05/31 08:05:57;;;;;;;2.53;1.10;;;30.50;72.90;;;30.14;29.37;101392.88;4999408;28;20018;-71
2022/05/31 08:08:23;;;;;;;11.27;1.38;;;29.80;74.00;;;28.52;31.03;101386.34;5017108;28;20057;-71
2022/05/31 08:10:48;;;;;;;3.00;0.88;;;28.60;74.70;;;26.91;33.39;101374.13;4994522;28;20584;-71
2022/05/31 08:13:14;;;;;;;2.97;0.88;;;27.70;75.40;;;26.75;33.18;101367.66;4990416;28;20069;-71
2022/05/31 08:15:40;;;;;;;2.17;0.82;;;27.30;75.60;;;26.87;32.53;101361.94;4995832;28;20038;-71
2022/05/31 08:18:06;;;;;;;2.65;0.80;;;27.00;74.10;;;26.26;32.58;101366.50;5004664;28;20509;-71
2022/05/31 08:20:32;;;;;;;3.15;0.70;;;26.80;75.90;;;26.11;32.76;101366.22;5002811;28;20042;-70
2022/05/31 08:22:57;;;;;;;2.72;0.90;;;26.50;78.30;;;26.07;33.93;101356.75;4993347;28;20438;-71
2022/05/31 08:25:23;;;;;;;3.10;1.10;;;26.30;78.30;;;26.10;34.46;101345.66;4985333;28;20037;-70
2022/05/31 08:27:49;;;;;;;3.30;0.90;;;26.10;78.90;;;25.46;34.63;101344.91;4991649;28;20029;-71
2022/05/31 08:30:15;;;;;;;1.77;0.60;;;25.70;79.00;;;24.98;35.98;101339.66;4996369;28;20057;-71
2022/05/31 08:32:41;;;;;;;3.30;0.85;;;25.40;81.40;;;24.73;36.47;101332.28;4993007;28;20474;-71
2022/05/31 08:35:07;;;;;;;2.67;0.70;;;25.00;80.80;;;23.99;37.10;101325.84;4995278;28;20069;-72
2022/05/31 08:37:33;;;;;;;2.00;0.70;;;24.50;80.70;;;23.23;37.78;101320.34;4980482;28;20030;-70
2022/05/31 08:39:59;;;;;;;0.95;0.65;;;24.00;82.00;;;22.75;38.43;101302.25;4998669;28;20084;-71
2022/05/31 08:43:00;;;;;;;2.75;0.85;;;23.90;82.80;;;22.48;38.49;101292.97;5004979;28;20450;-70
2022/05/31 08:45:53;;;;;;;4.57;0.75;;;23.40;83.10;;;22.26;38.75;101297.53;4984862;28;20616;-71
2022/05/31 08:48:55;;;;;;;3.72;0.82;;;23.20;83.40;;;22.24;40.30;101285.25;4981389;28;20049;-70
2022/05/31 08:51:53;;;;;;;3.95;0.85;;;23.30;84.30;;;22.58;39.10;101285.81;4986558;28;20030;-71
2022/05/31 08:57:36;;;;;;;1.85;0.77;;;23.30;85.00;;;22.40;40.33;101277.56;4993505;28;20104;-71
2022/05/31 09:00:19;;;;;;;3.35;1.05;;;23.30;86.50;;;22.60;39.97;101270.44;4973981;28;20043;-70
2022/05/31 09:03:01;;;;;;;3.28;0.55;;;23.30;85.10;;;22.67;40.97;101268.03;4989848;28;20029;-70
2022/05/31 09:05:35;;;;;;;3.53;0.60;;;23.40;83.80;;;22.70;39.49;101276.69;4994970;28;20034;-72
2022/05/31 09:08:24;;;;;;;2.20;0.55;;;23.30;82.70;;;22.24;38.41;101274.50;4994648;28;20041;-70
2022/05/31 09:11:32;;;;;;;1.48;0.65;;;22.90;82.20;;;21.68;38.99;101281.94;4984852;28;20038;-72
2022/05/31 09:14:40;;;;;;;1.52;0.60;;;22.70;85.30;;;22.07;40.33;101267.91;4989989;28;20050;-71
2022/05/31 09:17:45;;;;;;;2.38;0.65;;;22.70;84.90;;;22.03;38.18;101269.13;4987271;28;20018;-70
2022/05/31 09:20:20;;;;;;;3.75;0.47;;;22.70;83.70;;;21.91;39.62;101265.69;4993157;28;20048;-71
2022/05/31 09:22:47;;;;;;;1.77;0.57;;;22.60;83.90;;;21.67;39.42;101274.03;4997763;28;20525;-71
2022/05/31 09:25:13;;;;;;;2.00;0.38;;;22.40;83.90;;;21.50;39.71;101262.88;4991363;28;20041;-71
2022/05/31 09:27:54;;;;;;;1.63;0.60;;;22.10;82.90;;;21.30;38.99;101266.38;4986512;28;20154;-71
2022/05/31 09:30:56;;;;;;;4.20;0.60;;;22.10;84.20;;;21.75;38.81;101262.63;4993285;28;20060;-70
2022/05/31 09:33:53;;;;;;;1.65;0.45;;;22.40;84.60;;;22.11;38.94;101256.78;4982372;28;20046;-70
2022/05/31 09:36:45;;;;;;;;;;;22.40;84.40;;;22.21;39.63;101248.78;4980530;28;20037;-71
2022/05/31 09:39:37;;;;;;;3.25;0.80;;;22.70;86.40;;;22.32;39.63;101246.03;4963695;28;19912;-70
2022/05/31 09:42:32;;;;;;;28.30;1.23;;;22.80;84.00;;;22.32;38.87;101251.41;4994605;28;20026;-71
2022/05/31 09:45:10;;;;;;;2.70;0.70;;;22.80;85.60;;;22.07;39.16;101238.41;4999139;28;20026;-71
2022/05/31 09:47:38;;;;;;;1.88;0.30;;;22.60;84.10;;;21.63;39.58;101243.94;4990777;28;20479;-71
2022/05/31 09:50:08;;;;;;;1.58;0.50;;;22.40;84.30;;;21.40;40.25;101234.28;4993003;28;20050;-71
2022/05/31 09:52:56;;;;;;;0.77;0.40;;;22.10;82.60;;;21.00;39.01;101238.47;4983696;28;20065;-70
2022/05/31 09:58:38;;;;;;;0.68;0.40;;;21.90;86.50;;;21.10;40.02;101231.38;4996285;28;20040;-70
2022/05/31 10:01:26;;;;;;;2.67;0.50;;;21.90;85.20;;;21.07;39.69;101228.09;4988658;28;20022;-70
2022/05/31 10:04:07;;;;;;;1.00;0.40;;;21.80;85.40;;;20.90;39.78;101230.34;4990459;28;20105;-71
2022/05/31 10:06:33;;;;;;;2.17;0.57;;;21.60;86.00;;;20.78;40.79;101233.22;4989016;28;20101;-69
2022/05/31 10:09:16;;;;;;;3.95;0.30;;;21.50;85.80;;;20.52;41.05;101227.22;4983126;28;20030;-71
2022/05/31 10:11:49;;;;;;;2.95;0.70;;;21.30;86.30;;;20.29;41.66;101217.41;4983666;28;20129;-70
2022/05/31 10:14:39;;;;;;;2.55;0.50;;;21.20;86.70;;;20.10;41.78;101217.19;4988354;28;20095;-70
2022/05/31 10:17:42;;;;;;;2.15;0.63;;;21.00;85.40;;;19.72;42.06;101210.34;5001077;28;20040;-70
2022/05/31 10:20:26;;;;;;;1.60;0.50;;;20.70;87.00;;;19.54;42.78;101206.38;4981126;28;20410;-70
2022/05/31 10:23:15;;;;;;;4.68;0.45;;;20.60;89.50;;;19.50;44.22;101207.59;4983325;28;20038;-70
2022/05/31 10:25:57;;;;;;;1.23;0.50;;;20.50;90.00;;;19.48;44.60;101189.00;4986677;28;20060;-70
2022/05/31 10:28:52;;;;;;;3.78;0.60;;;20.40;90.30;;;19.57;45.15;101188.31;5001402;28;20026;-70
2022/05/31 10:31:48;;;;;;;1.85;0.68;;;20.50;91.30;;;19.79;45.31;101192.88;4983856;28;20414;-70
2022/05/31 10:34:35;;;;;;;0.40;0.33;;;20.60;91.10;;;19.86;45.73;101199.44;4985593;28;20058;-70
2022/05/31 10:37:07;;;;;;;2.08;0.40;;;20.70;90.90;;;19.94;44.87;101189.97;5000648;28;20034;-70
2022/05/31 10:39:39;;;;;;;0.98;0.40;;;20.70;89.30;;;19.88;42.87;101197.47;4989248;28;20042;-70
2022/05/31 10:42:15;;;;;;;1.98;0.40;;;20.70;88.90;;;19.76;43.33;101197.59;4976987;28;20030;-71
2022/05/31 10:44:53;;;;;;;1.00;0.30;;;20.50;88.00;;;19.36;43.44;101195.31;4999405;28;20041;-70
2022/05/31 10:47:22;;;;;;;1.75;0.60;;;20.20;90.30;;;19.14;45.10;101193.41;4990290;28;20041;-71
2022/05/31 10:49:49;;;;;;;0.82;0.40;;;20.00;91.10;;;18.94;46.15;101181.53;4978942;28;20497;-71